Time;durP1;ratioP1;P1;durP2;ratioP2;P2;SDS_P1;SDS_P2;PMS_P1;PMS_P2;Temp;Humidity;BMP_temperature;BMP_pressure;BME280_temperature;BME280_humidity;BME280_pressure;Samples;Min_cycle;Max_cycle;Signal;HPM_P1;HPM_P2
2023/03/14 00:01:23;;;;;;;221.65;154.45;;;;;;;24.03;40.33;99746.38;4994421;28;20030;-50
2023/03/14 00:03:52;;;;;;;232.20;155.98;;;;;;;24.09;40.33;99746.34;4994378;28;20177;-49
2023/03/14 00:06:20;;;;;;;225.50;158.13;;;;;;;24.03;40.16;99754.22;4994424;28;20038;-52
2023/03/14 00:08:49;;;;;;;223.68;159.00;;;;;;;24.09;40.09;99758.56;4994359;28;20034;-50
2023/03/14 00:11:20;;;;;;;228.40;157.18;;;;;;;24.02;40.02;99768.22;4994219;28;20030;-50
2023/03/14 00:13:52;;;;;;;235.20;163.35;;;;;;;24.04;40.07;99771.69;4994297;28;20038;-51
2023/03/14 00:16:21;;;;;;;221.63;148.65;;;;;;;24.06;39.98;99784.81;4994289;28;20034;-51
2023/03/14 00:18:50;;;;;;;219.52;150.65;;;;;;;24.07;39.81;99791.78;4994121;28;20034;-49
2023/03/14 00:21:19;;;;;;;216.68;150.15;;;;;;;23.91;39.83;99768.22;4994071;28;20612;-50
2023/03/14 00:23:48;;;;;;;217.35;146.48;;;;;;;24.03;39.62;99801.38;4993898;28;20459;-51
2023/03/14 00:26:19;;;;;;;201.70;138.27;;;;;;;23.95;39.77;99816.25;4992767;28;20113;-52
2023/03/14 00:28:48;;;;;;;204.52;142.52;;;;;;;23.96;39.61;99836.34;4994045;28;20030;-49
2023/03/14 00:31:17;;;;;;;185.55;128.20;;;;;;;23.83;39.61;99838.97;4992534;28;20027;-50
2023/03/14 00:33:46;;;;;;;190.55;131.13;;;;;;;23.80;39.88;99844.25;4992588;28;20041;-49
2023/03/14 00:36:17;;;;;;;198.63;133.70;;;;;;;23.83;39.71;99848.59;4994250;28;20031;-49
2023/03/14 00:38:47;;;;;;;196.27;134.65;;;;;;;23.85;39.91;99862.56;4994037;28;20030;-52
2023/03/14 00:41:22;;;;;;;196.57;133.27;;;;;;;23.83;40.02;99864.31;4994143;28;20030;-51
2023/03/14 00:43:51;;;;;;;181.57;124.85;;;;;;;23.85;39.53;99885.25;4993864;28;20115;-49
2023/03/14 00:46:20;;;;;;;198.07;131.45;;;;;;;23.85;39.38;99883.53;4993967;28;20034;-49
2023/03/14 00:48:49;;;;;;;190.43;126.55;;;;;;;23.89;39.26;99905.31;4993692;28;20081;-51
2023/03/14 00:51:18;;;;;;;171.98;118.10;;;;;;;23.90;39.33;99904.44;4993808;28;20037;-50
2023/03/14 00:53:47;;;;;;;170.13;115.47;;;;;;;23.77;39.50;99904.50;4993687;28;20154;-51
2023/03/14 00:56:15;;;;;;;172.43;119.63;;;;;;;23.77;39.33;99924.56;4993752;28;20061;-50
2023/03/14 00:58:44;;;;;;;181.23;122.05;;;;;;;23.82;39.24;99922.81;4992109;28;20110;-50
2023/03/14 01:01:22;;;;;;;179.93;120.03;;;;;;;23.80;39.19;99937.66;4993612;28;20081;-49
2023/03/14 01:03:53;;;;;;;176.95;120.35;;;;;;;23.78;39.45;99942.91;4993226;28;20154;-52
2023/03/14 01:06:24;;;;;;;160.63;110.43;;;;;;;23.71;39.11;99949.03;4993748;28;20030;-50
2023/03/14 01:08:53;;;;;;;168.27;114.25;;;;;;;23.63;39.47;99953.41;4993376;28;20081;-51
2023/03/14 01:11:29;;;;;;;176.50;115.43;;;;;;;23.61;39.57;99958.63;4993345;28;20468;-49
2023/03/14 01:13:58;;;;;;;171.40;116.30;;;;;;;23.75;38.73;99970.81;4993515;28;20544;-50
2023/03/14 01:16:27;;;;;;;174.43;116.38;;;;;;;23.74;39.27;99976.97;4993489;28;20022;-52
2023/03/14 01:18:56;;;;;;;169.25;110.95;;;;;;;23.72;39.36;99990.03;4993579;28;20026;-51
2023/03/14 01:21:28;;;;;;;167.02;113.97;;;;;;;23.65;39.61;99990.94;4993525;28;20058;-53
2023/03/14 01:23:58;;;;;;;160.18;108.00;;;;;;;23.70;39.02;99996.16;4993222;28;20030;-50
2023/03/14 01:26:29;;;;;;;164.57;111.82;;;;;;;23.67;38.98;100007.50;4993378;28;20110;-49
2023/03/14 01:28:58;;;;;;;164.20;111.55;;;;;;;23.69;39.42;100008.38;4993443;28;20106;-49
2023/03/14 01:31:27;;;;;;;165.68;109.60;;;;;;;23.69;38.91;100018.84;4993400;28;20023;-50
2023/03/14 01:33:56;;;;;;;173.18;116.57;;;;;;;23.67;39.13;100034.56;4992792;28;20026;-49
2023/03/14 01:36:25;;;;;;;162.95;111.63;;;;;;;23.60;39.26;100032.81;4993520;28;20429;-49
2023/03/14 01:38:54;;;;;;;166.15;111.90;;;;;;;23.47;39.42;100018.88;4993385;28;20109;-49
2023/03/14 01:41:24;;;;;;;157.32;111.13;;;;;;;23.62;39.30;100043.31;4992867;28;20034;-53
2023/03/14 01:43:53;;;;;;;173.07;118.60;;;;;;;23.61;39.46;100046.78;4993153;28;20042;-49
2023/03/14 01:46:27;;;;;;;172.77;117.10;;;;;;;23.61;39.57;100047.66;4996820;28;20113;-50
2023/03/14 01:49:02;;;;;;;162.50;109.45;;;;;;;23.57;38.85;100068.59;4997093;28;20023;-49
2023/03/14 01:51:34;;;;;;;171.70;115.65;;;;;;;23.60;39.31;100069.47;4997121;28;20077;-50
2023/03/14 01:54:25;;;;;;;167.57;109.40;;;;;;;23.59;39.33;100074.72;4996755;28;20038;-53
2023/03/14 01:56:58;;;;;;;174.75;118.70;;;;;;;23.56;39.40;100074.72;4995477;28;20043;-48
2023/03/14 01:59:28;;;;;;;178.18;117.35;;;;;;;23.61;39.16;100079.06;4995615;28;20030;-51
2023/03/14 02:01:57;;;;;;;170.35;117.82;;;;;;;23.62;39.17;100090.44;4995427;28;20047;-49
2023/03/14 02:04:30;;;;;;;166.18;118.38;;;;;;;23.59;39.57;100099.13;4995484;28;20022;-49
2023/03/14 02:07:06;;;;;;;175.25;115.68;;;;;;;23.58;39.07;100110.47;4996754;28;20107;-52
2023/03/14 02:09:34;;;;;;;173.32;117.13;;;;;;;23.59;39.13;100109.59;4996540;28;20037;-51
2023/03/14 02:12:03;;;;;;;163.02;112.05;;;;;;;23.57;38.86;100115.72;4996720;28;20022;-50
2023/03/14 02:14:37;;;;;;;171.02;116.05;;;;;;;23.60;38.88;100134.06;4996596;28;20034;-49
2023/03/14 02:17:07;;;;;;;166.27;114.05;;;;;;;23.50;39.12;100147.13;4996785;28;20037;-50
2023/03/14 02:19:49;;;;;;;168.88;115.90;;;;;;;23.49;38.93;100163.72;4995444;28;20023;-50
2023/03/14 02:22:18;;;;;;;185.02;125.00;;;;;;;23.43;39.56;100155.84;4996211;28;20373;-53
2023/03/14 02:24:51;;;;;;;195.55;124.80;;;;;;;23.43;39.69;100153.22;4996435;28;20389;-50
2023/03/14 02:27:21;;;;;;;182.15;123.57;;;;;;;23.41;39.60;100162.81;4996391;28;20037;-49
2023/03/14 02:29:51;;;;;;;182.82;126.35;;;;;;;23.46;39.26;100161.09;4996432;28;20932;-52
2023/03/14 02:32:22;;;;;;;177.65;120.25;;;;;;;23.43;39.40;100174.16;4996034;28;20157;-50
2023/03/14 02:34:54;;;;;;;181.40;121.57;;;;;;;23.41;39.51;100182.91;4996376;28;20362;-49
2023/03/14 02:37:27;;;;;;;178.93;123.68;;;;;;;23.45;39.53;100182.91;4996293;28;20358;-49
2023/03/14 02:39:55;;;;;;;183.15;121.50;;;;;;;23.46;39.27;100187.28;4994891;28;20511;-49
2023/03/14 02:42:24;;;;;;;191.52;125.22;;;;;;;23.36;39.69;100198.56;4996009;28;20481;-49
2023/03/14 02:45:01;;;;;;;177.50;122.53;;;;;;;23.44;39.61;100214.28;4995994;28;20038;-53
2023/03/14 02:47:31;;;;;;;178.38;122.03;;;;;;;23.46;39.50;100202.09;4994668;28;20554;-51
2023/03/14 02:50:05;;;;;;;169.05;115.05;;;;;;;23.39;39.19;100222.13;4994372;28;20034;-50
2023/03/14 02:52:34;;;;;;;167.18;115.90;;;;;;;23.18;39.15;100178.41;4994409;28;20026;-49
2023/03/14 02:55:03;;;;;;;183.30;122.60;;;;;;;23.27;39.21;100207.25;4995272;28;20034;-50
2023/03/14 02:57:32;;;;;;;167.63;116.35;;;;;;;23.28;39.01;100227.31;4995820;28;20030;-52
2023/03/14 03:00:04;;;;;;;184.40;119.63;;;;;;;23.18;39.27;100222.88;4995935;28;20447;-52
2023/03/14 03:02:33;;;;;;;178.70;121.55;;;;;;;23.26;39.61;100249.13;4995349;28;20492;-51
2023/03/14 03:05:02;;;;;;;174.50;119.43;;;;;;;23.30;39.47;100248.28;4995423;28;20105;-49
2023/03/14 03:07:31;;;;;;;178.88;121.40;;;;;;;23.18;39.65;100260.38;4995479;28;20061;-49
2023/03/14 03:10:00;;;;;;;183.05;126.35;;;;;;;23.15;39.63;100270.84;4995706;28;20376;-53
2023/03/14 03:12:28;;;;;;;178.02;122.65;;;;;;;23.29;39.44;100255.25;4995436;28;20042;-50
2023/03/14 03:14:56;;;;;;;180.50;125.75;;;;;;;23.21;39.75;100252.59;4995389;28;20058;-52
2023/03/14 03:17:24;;;;;;;178.50;123.05;;;;;;;23.27;39.44;100256.97;4995431;28;20026;-49
2023/03/14 03:19:53;;;;;;;183.55;125.32;;;;;;;23.27;39.60;100272.66;4995407;28;20037;-51
2023/03/14 03:22:22;;;;;;;177.38;123.40;;;;;;;23.25;39.34;100284.00;4994780;28;20415;-50
2023/03/14 03:24:51;;;;;;;178.02;126.22;;;;;;;23.23;39.55;100285.75;4994937;28;20080;-50
2023/03/14 03:27:20;;;;;;;189.93;128.02;;;;;;;23.15;39.53;100272.59;4995442;28;20018;-49
2023/03/14 03:29:48;;;;;;;193.88;130.85;;;;;;;23.18;39.44;100293.53;4995159;28;20149;-50
2023/03/14 03:32:17;;;;;;;182.57;122.97;;;;;;;23.01;39.10;100262.91;4995001;28;20046;-49
2023/03/14 03:34:45;;;;;;;179.65;126.07;;;;;;;23.23;39.15;100296.22;4995171;28;20040;-52
2023/03/14 03:37:14;;;;;;;186.07;127.30;;;;;;;23.17;39.60;100300.50;4995080;28;20030;-49
2023/03/14 03:39:43;;;;;;;184.35;123.93;;;;;;;23.06;39.61;100307.41;4994998;28;20061;-49
2023/03/14 03:42:12;;;;;;;183.35;125.93;;;;;;;23.20;39.01;100307.50;4994684;28;20038;-50
2023/03/14 03:44:40;;;;;;;171.15;121.95;;;;;;;23.20;39.29;100317.97;4995018;28;20048;-50
2023/03/14 03:47:09;;;;;;;184.88;126.32;;;;;;;23.23;39.45;100317.13;4994897;28;20026;-50
2023/03/14 03:49:38;;;;;;;189.02;130.57;;;;;;;23.30;39.31;100330.28;4993255;28;20022;-50
2023/03/14 03:52:07;;;;;;;183.75;127.43;;;;;;;23.18;39.05;100336.25;4994622;28;20045;-50
2023/03/14 03:54:36;;;;;;;181.27;126.30;;;;;;;23.19;39.00;100340.63;4994622;28;20447;-50
2023/03/14 03:57:05;;;;;;;191.98;133.45;;;;;;;23.22;39.37;100350.31;4994939;28;20092;-50
2023/03/14 03:59:33;;;;;;;191.18;128.70;;;;;;;23.21;39.47;100353.78;4994664;28;20061;-51
2023/03/14 04:02:02;;;;;;;186.90;129.23;;;;;;;23.11;39.52;100355.41;4994181;28;20046;-50
2023/03/14 04:04:31;;;;;;;188.10;131.55;;;;;;;23.14;39.71;100360.69;4994574;28;20407;-53
2023/03/14 04:06:59;;;;;;;202.18;139.00;;;;;;;23.04;39.74;100366.69;4993869;28;20034;-50
2023/03/14 04:09:26;;;;;;;198.68;136.02;;;;;;;23.15;39.45;100375.53;4994178;28;20092;-49
2023/03/14 04:11:55;;;;;;;204.88;137.65;;;;;;;23.16;39.33;100374.66;4994500;28;20030;-50
2023/03/14 04:14:24;;;;;;;200.07;137.45;;;;;;;23.13;39.81;100379.84;4994285;28;20441;-50
2023/03/14 04:16:52;;;;;;;202.90;139.25;;;;;;;23.10;39.94;100379.84;4994316;28;20038;-50
2023/03/14 04:19:22;;;;;;;195.57;137.88;;;;;;;23.16;39.65;100397.31;4994097;28;20031;-50
2023/03/14 04:21:51;;;;;;;195.30;139.05;;;;;;;23.20;39.11;100394.75;4993867;28;20034;-49
2023/03/14 04:24:19;;;;;;;194.63;138.65;;;;;;;23.23;39.32;100411.34;4994613;28;20037;-50
2023/03/14 04:26:48;;;;;;;198.77;134.75;;;;;;;23.09;39.31;100408.59;4994368;28;20026;-50
2023/03/14 04:29:17;;;;;;;200.40;137.98;;;;;;;23.16;39.48;100407.78;4994205;28;20026;-50
2023/03/14 04:31:45;;;;;;;197.15;136.95;;;;;;;23.20;39.54;100418.31;4992565;28;20022;-50
2023/03/14 04:34:14;;;;;;;200.70;134.88;;;;;;;23.20;38.95;100415.69;4994052;28;20034;-51
2023/03/14 04:36:43;;;;;;;199.07;140.23;;;;;;;23.17;39.00;100428.72;4994101;28;20033;-52
2023/03/14 04:39:11;;;;;;;195.98;133.32;;;;;;;23.13;39.30;100439.16;4993952;28;20603;-53
2023/03/14 04:41:40;;;;;;;186.25;132.38;;;;;;;23.10;39.06;100440.00;4993989;28;20032;-49
2023/03/14 04:44:09;;;;;;;193.55;134.23;;;;;;;22.93;39.42;100426.75;4993714;28;20034;-53
2023/03/14 04:46:37;;;;;;;195.10;134.30;;;;;;;23.06;39.64;100454.81;4993605;28;20176;-50
2023/03/14 04:49:05;;;;;;;189.60;132.35;;;;;;;23.14;39.06;100440.91;4993535;28;20077;-53
2023/03/14 04:51:33;;;;;;;198.50;134.88;;;;;;;23.12;39.08;100447.84;4993627;28;20117;-50
2023/03/14 04:54:02;;;;;;;192.65;131.60;;;;;;;23.14;38.84;100444.41;4993953;28;20387;-50
2023/03/14 04:56:30;;;;;;;184.50;128.23;;;;;;;23.13;38.90;100460.06;4993804;28;20085;-49
2023/03/14 04:58:58;;;;;;;185.32;126.20;;;;;;;23.13;39.06;100458.34;4993761;28;20105;-50
2023/03/14 05:01:27;;;;;;;183.77;123.15;;;;;;;23.13;38.86;100471.44;4993286;28;20058;-51
2023/03/14 05:03:55;;;;;;;180.77;120.25;;;;;;;23.12;38.66;100471.41;4993226;28;20447;-49
2023/03/14 05:06:24;;;;;;;172.98;120.10;;;;;;;23.14;38.75;100470.56;4993341;28;20085;-51
2023/03/14 05:08:52;;;;;;;173.63;117.82;;;;;;;23.17;38.45;100470.56;4993573;28;20037;-53
2023/03/14 05:11:22;;;;;;;159.93;111.68;;;;;;;23.07;38.50;100476.59;4993610;28;20089;-49
2023/03/14 05:13:50;;;;;;;161.43;109.05;;;;;;;23.08;38.43;100488.81;4993588;28;20035;-51
2023/03/14 05:16:19;;;;;;;158.60;107.78;;;;;;;22.98;38.61;100479.16;4993631;28;20058;-50
2023/03/14 05:18:47;;;;;;;163.80;106.80;;;;;;;23.05;38.74;100501.88;4994816;28;20026;-50
2023/03/14 05:21:16;;;;;;;149.32;105.93;;;;;;;23.00;38.46;100496.59;4998209;28;20058;-51
2023/03/14 05:23:45;;;;;;;150.05;101.38;;;;;;;23.04;38.61;100506.25;4997202;28;20037;-48
2023/03/14 05:26:16;;;;;;;147.70;101.25;;;;;;;23.06;38.38;100490.53;4997324;28;20539;-50
2023/03/14 05:28:45;;;;;;;144.07;97.75;;;;;;;23.10;38.53;100513.25;4997651;28;20034;-49
2023/03/14 05:31:13;;;;;;;140.85;96.78;;;;;;;23.05;38.34;100520.19;4997141;28;20396;-49
2023/03/14 05:33:42;;;;;;;138.63;96.32;;;;;;;23.02;38.53;100530.59;4997497;28;20030;-52
2023/03/14 05:36:11;;;;;;;134.68;93.32;;;;;;;22.99;38.67;100528.00;4996151;28;20022;-50
2023/03/14 05:38:40;;;;;;;135.73;93.35;;;;;;;23.01;38.56;100540.22;4980041;28;20464;-49
2023/03/14 05:41:09;;;;;;;131.60;92.20;;;;;;;23.03;38.74;100537.59;4996958;28;20034;-52
2023/03/14 05:43:37;;;;;;;140.75;90.93;;;;;;;23.01;38.43;100545.44;4996921;28;20027;-49
2023/03/14 05:46:06;;;;;;;129.10;87.82;;;;;;;23.05;38.68;100544.63;4997340;28;20029;-49
2023/03/14 05:48:35;;;;;;;123.78;86.80;;;;;;;23.08;38.37;100545.53;4995938;28;20042;-49
2023/03/14 05:51:03;;;;;;;130.98;88.85;;;;;;;23.03;38.72;100551.56;4996897;28;20506;-53
2023/03/14 05:53:32;;;;;;;126.88;87.13;;;;;;;23.05;38.30;100555.09;4995339;28;20046;-49
2023/03/14 05:56:00;;;;;;;124.28;85.53;;;;;;;23.12;38.09;100562.97;4996550;28;20046;-49
2023/03/14 05:58:28;;;;;;;125.68;83.97;;;;;;;23.09;38.29;100571.69;4996869;28;20072;-49
2023/03/14 06:00:56;;;;;;;112.85;77.40;;;;;;;23.14;38.20;100570.00;4996296;28;20026;-50
2023/03/14 06:03:24;;;;;;;106.70;74.53;;;;;;;23.13;38.43;100565.63;4995986;28;20427;-51
2023/03/14 06:05:53;;;;;;;105.97;71.30;;;;;;;23.09;38.16;100563.84;4996646;28;20022;-50
2023/03/14 06:08:21;;;;;;;98.38;65.40;;;;;;;23.13;38.22;100567.34;4996433;28;20068;-49
2023/03/14 06:10:49;;;;;;;92.50;64.43;;;;;;;23.09;38.01;100569.06;4996587;28;20069;-52
2023/03/14 06:13:18;;;;;;;94.28;64.97;;;;;;;23.10;38.11;100576.06;4996508;28;20041;-50
2023/03/14 06:15:46;;;;;;;97.63;64.47;;;;;;;23.11;37.74;100574.31;4996540;28;20134;-53
2023/03/14 06:18:15;;;;;;;91.05;59.55;;;;;;;23.08;38.24;100585.63;4996600;28;20058;-53
2023/03/14 06:20:43;;;;;;;93.63;59.70;;;;;;;23.15;38.06;100587.47;4994758;28;20491;-50
2023/03/14 06:23:11;;;;;;;85.03;58.70;;;;;;;23.10;38.29;100591.75;4996008;28;20480;-51
2023/03/14 06:25:40;;;;;;;81.88;55.85;;;;;;;23.07;37.92;100586.47;4995796;28;20126;-49
2023/03/14 06:28:08;;;;;;;76.43;52.42;;;;;;;23.15;37.66;100595.31;4995679;28;20037;-49
2023/03/14 06:30:36;;;;;;;75.65;52.15;;;;;;;23.11;38.20;100601.38;4993570;28;20392;-50
2023/03/14 06:33:05;;;;;;;69.82;49.08;;;;;;;23.11;37.85;100603.09;4995985;28;20381;-54
2023/03/14 06:35:33;;;;;;;68.93;47.00;;;;;;;23.09;38.05;100620.50;4996319;28;20026;-50
2023/03/14 06:38:02;;;;;;;68.57;47.22;;;;;;;23.07;38.16;100636.19;4995038;28;20045;-50
2023/03/14 06:40:30;;;;;;;67.25;46.85;;;;;;;23.10;38.12;100657.16;4996321;28;20177;-50
2023/03/14 06:42:59;;;;;;;66.53;44.95;;;;;;;23.12;38.11;100670.25;4995982;28;20391;-51
2023/03/14 06:45:27;;;;;;;67.20;40.78;;;;;;;23.16;37.67;100652.00;4995735;28;20089;-53
2023/03/14 06:47:56;;;;;;;57.45;38.83;;;;;;;23.11;37.84;100647.56;4995807;28;20069;-52
2023/03/14 06:50:24;;;;;;;57.83;38.10;;;;;;;23.08;37.79;100663.25;4995417;28;20034;-52
2023/03/14 06:52:52;;;;;;;61.70;37.75;;;;;;;23.10;37.83;100667.63;4995825;28;20026;-50
2023/03/14 06:55:21;;;;;;;55.33;36.03;;;;;;;23.04;38.14;100664.94;4995933;28;20034;-50
2023/03/14 06:57:49;;;;;;;54.05;36.65;;;;;;;23.14;37.83;100677.28;4995732;28;20030;-52
2023/03/14 07:00:18;;;;;;;49.05;33.70;;;;;;;23.15;37.78;100680.75;4995862;28;20057;-50
2023/03/14 07:02:47;;;;;;;51.65;34.55;;;;;;;23.08;38.06;100681.56;4993910;28;20129;-50
2023/03/14 07:05:15;;;;;;;52.90;35.03;;;;;;;23.10;38.07;100675.47;4995410;28;20534;-49
2023/03/14 07:07:44;;;;;;;53.60;33.35;;;;;;;23.11;37.65;100682.47;4995643;28;20058;-52
2023/03/14 07:10:12;;;;;;;46.42;31.48;;;;;;;23.21;38.04;100689.59;4995336;28;20030;-50
2023/03/14 07:12:41;;;;;;;48.53;30.02;;;;;;;23.21;37.98;100696.59;4995138;28;20092;-51
2023/03/14 07:15:09;;;;;;;45.05;29.20;;;;;;;23.16;38.16;100701.75;4995186;28;20113;-50
2023/03/14 07:17:38;;;;;;;44.72;29.90;;;;;;;23.13;38.46;100706.94;4995075;28;20056;-52
2023/03/14 07:20:07;;;;;;;42.30;28.63;;;;;;;23.26;37.73;100717.56;4994101;28;20053;-51
2023/03/14 07:22:36;;;;;;;45.95;27.88;;;;;;;23.25;38.21;100726.28;4995277;28;20101;-50
2023/03/14 07:25:05;;;;;;;41.92;26.50;;;;;;;23.28;38.42;100727.19;4995182;28;20058;-50
2023/03/14 07:27:33;;;;;;;43.55;26.55;;;;;;;23.28;37.95;100721.09;4995026;28;20026;-50
2023/03/14 07:30:02;;;;;;;39.10;24.95;;;;;;;23.27;38.31;100733.28;4995109;28;20397;-49
2023/03/14 07:32:31;;;;;;;41.67;26.25;;;;;;;23.29;38.09;100731.56;4995060;28;20085;-49
2023/03/14 07:35:00;;;;;;;35.45;25.38;;;;;;;23.34;38.10;100731.59;4994657;28;20133;-49
2023/03/14 07:37:29;;;;;;;39.97;25.52;;;;;;;23.40;38.07;100733.44;4995371;28;20038;-52
2023/03/14 07:39:57;;;;;;;54.30;37.38;;;;;;;23.44;38.19;100738.72;4995116;28;20022;-49
2023/03/14 07:42:25;;;;;;;61.60;43.35;;;;;;;23.37;38.46;100736.88;4993975;28;20030;-51
2023/03/14 07:44:54;;;;;;;73.55;49.75;;;;;;;23.49;37.93;100744.00;4994671;28;20376;-48
2023/03/14 07:47:22;;;;;;;76.50;50.88;;;;;;;23.40;38.23;100755.25;4994645;28;20026;-51
2023/03/14 07:49:50;;;;;;;76.95;49.90;;;;;;;23.40;38.41;100754.38;4994670;28;20034;-51
2023/03/14 07:52:19;;;;;;;69.95;49.90;;;;;;;23.48;38.23;100764.09;4993220;28;20026;-51
2023/03/14 07:54:47;;;;;;;70.15;48.63;;;;;;;23.48;38.46;100761.47;4994554;28;20026;-52
2023/03/14 07:57:16;;;;;;;71.72;46.50;;;;;;;23.48;38.29;100769.34;4994593;28;20336;-49
2023/03/14 07:59:45;;;;;;;71.25;45.95;;;;;;;23.55;38.59;100775.50;4994289;28;20026;-52
2023/03/14 08:02:14;;;;;;;63.45;44.22;;;;;;;23.56;38.33;100786.84;4993984;28;20050;-49
2023/03/14 08:04:42;;;;;;;64.15;43.33;;;;;;;23.64;38.08;100796.56;4994918;28;20034;-49
2023/03/14 08:07:11;;;;;;;54.90;39.58;;;;;;;23.66;38.16;100807.06;4994178;28;20383;-51
2023/03/14 08:09:40;;;;;;;57.67;40.25;;;;;;;23.75;37.92;100806.25;4994431;28;20052;-48
2023/03/14 08:12:08;;;;;;;54.25;39.05;;;;;;;23.64;38.12;100808.78;4992493;28;20026;-50
2023/03/14 08:14:37;;;;;;;65.03;46.03;;;;;;;23.78;38.23;100815.06;4994044;28;20022;-49
2023/03/14 08:17:07;;;;;;;77.47;53.95;;;;;;;23.78;38.18;100814.16;4994091;28;20026;-51
2023/03/14 08:19:36;;;;;;;76.13;54.67;;;;;;;23.86;38.21;100819.50;4994812;28;20384;-49
2023/03/14 08:22:05;;;;;;;74.40;52.70;;;;;;;23.82;37.84;100829.06;4993996;28;20058;-50
2023/03/14 08:24:33;;;;;;;75.30;51.70;;;;;;;23.81;37.91;100830.81;4994040;28;20026;-51
2023/03/14 08:27:02;;;;;;;71.57;49.65;;;;;;;23.85;37.94;100834.34;4994242;28;20061;-49
2023/03/14 08:29:31;;;;;;;66.32;47.42;;;;;;;23.89;37.83;100828.28;4994048;28;20052;-49
2023/03/14 08:32:00;;;;;;;58.08;40.80;;;;;;;23.94;38.07;100844.91;4993980;28;20030;-51
2023/03/14 08:34:29;;;;;;;60.85;41.10;;;;;;;23.98;37.74;100853.75;4994179;28;20127;-50
2023/03/14 08:36:57;;;;;;;59.35;39.95;;;;;;;24.08;37.45;100850.34;4994066;28;20034;-50
2023/03/14 08:39:26;;;;;;;54.92;36.28;;;;;;;24.07;37.55;100866.06;4993642;28;20472;-50
2023/03/14 08:41:55;;;;;;;46.88;33.20;;;;;;;24.00;37.95;100872.09;4993970;28;20543;-50
2023/03/14 08:44:23;;;;;;;47.20;31.77;;;;;;;24.08;37.76;100873.94;4993889;28;20026;-50
2023/03/14 08:46:52;;;;;;;51.90;33.75;;;;;;;24.17;37.75;100880.13;4993744;28;20026;-49
2023/03/14 08:49:20;;;;;;;55.42;35.95;;;;;;;24.10;37.59;100880.06;4994092;28;20027;-49
2023/03/14 08:51:49;;;;;;;63.38;42.33;;;;;;;24.21;37.74;100895.03;4992717;28;20030;-51
2023/03/14 08:54:18;;;;;;;79.50;52.03;;;;;;;24.27;37.52;100903.84;4993551;28;20030;-52
2023/03/14 08:56:46;;;;;;;92.78;60.17;;;;;;;24.25;37.47;100900.31;4994103;28;20022;-53
2023/03/14 08:59:15;;;;;;;107.93;69.32;;;;;;;24.16;37.89;100901.97;4993918;28;20078;-50
2023/03/14 09:01:44;;;;;;;113.00;74.28;;;;;;;24.23;37.81;100898.56;4993827;28;20034;-49
2023/03/14 09:04:16;;;;;;;119.60;80.32;;;;;;;24.25;37.90;100917.81;4993860;28;20054;-53
2023/03/14 09:06:45;;;;;;;135.57;90.30;;;;;;;24.33;37.77;100897.78;4993756;28;20045;-53
2023/03/14 09:09:13;;;;;;;148.90;95.80;;;;;;;24.29;38.06;100914.34;4993427;28;20022;-52
2023/03/14 09:11:42;;;;;;;146.85;96.38;;;;;;;24.27;37.81;100906.47;4992269;28;20030;-49
2023/03/14 09:14:11;;;;;;;157.20;102.78;;;;;;;24.26;38.02;100909.06;4993556;28;20085;-51
2023/03/14 09:16:39;;;;;;;156.80;105.10;;;;;;;24.19;38.09;100915.09;4993349;28;20402;-52
2023/03/14 09:19:08;;;;;;;171.02;112.97;;;;;;;24.20;38.60;100907.28;4993758;28;20023;-52
2023/03/14 09:21:37;;;;;;;184.57;118.43;;;;;;;24.24;38.60;100906.41;4993283;28;20034;-51
2023/03/14 09:24:06;;;;;;;183.43;123.45;;;;;;;24.26;38.52;100919.56;4993587;28;20121;-49
2023/03/14 09:26:34;;;;;;;192.82;127.13;;;;;;;24.35;38.17;100930.13;4992151;28;20388;-50
2023/03/14 09:29:03;;;;;;;194.95;128.13;;;;;;;24.31;38.47;100923.13;4993515;28;20030;-49
2023/03/14 09:31:32;;;;;;;183.40;125.93;;;;;;;24.34;38.40;100938.00;4992148;28;20388;-50
2023/03/14 09:34:00;;;;;;;197.82;129.48;;;;;;;24.29;38.11;100948.44;4993443;28;20033;-50
2023/03/14 09:36:29;;;;;;;192.18;127.75;;;;;;;24.28;38.00;100933.56;4993412;28;20022;-49
2023/03/14 09:38:57;;;;;;;205.32;132.77;;;;;;;24.38;38.27;100935.41;4993174;28;20496;-49
2023/03/14 09:41:28;;;;;;;198.00;132.80;;;;;;;24.15;38.20;100926.44;4993352;28;20465;-52
2023/03/14 09:44:06;;;;;;;198.30;130.48;;;;;;;24.33;37.88;100947.59;4993100;28;20082;-50
2023/03/14 09:46:38;;;;;;;201.30;133.43;;;;;;;24.27;38.11;100961.50;4993335;28;20033;-52
2023/03/14 09:49:13;;;;;;;199.50;133.48;;;;;;;24.25;38.02;100955.38;4992454;28;20026;-50
2023/03/14 09:51:43;;;;;;;195.20;133.38;;;;;;;24.27;37.97;100971.13;4992050;28;20037;-49
2023/03/14 09:54:38;;;;;;;203.52;138.90;;;;;;;24.25;38.05;100975.47;4991613;28;20033;-52
2023/03/14 09:57:10;;;;;;;207.85;141.52;;;;;;;24.29;38.37;100995.63;4993161;28;20494;-50
2023/03/14 09:59:39;;;;;;;217.05;143.95;;;;;;;24.32;38.34;100993.03;4992166;28;20034;-51
2023/03/14 10:02:30;;;;;;;193.48;136.70;;;;;;;24.33;37.63;100999.16;4992959;28;20022;-51
2023/03/14 10:04:58;;;;;;;193.45;135.43;;;;;;;24.30;37.71;101004.34;4991892;28;20034;-50
2023/03/14 10:07:32;;;;;;;218.68;143.30;;;;;;;24.29;38.06;101019.22;4996630;28;20105;-49
2023/03/14 10:10:02;;;;;;;206.27;143.52;;;;;;;24.25;38.11;100996.44;4996775;28;20030;-51
2023/03/14 10:12:34;;;;;;;213.85;149.77;;;;;;;24.34;38.23;101017.50;4996744;28;20161;-50
2023/03/14 10:15:10;;;;;;;229.55;156.70;;;;;;;24.36;38.01;101020.16;4996712;28;20037;-49
2023/03/14 10:17:43;;;;;;;214.45;149.95;;;;;;;24.35;37.68;101014.03;4996517;28;20030;-52
2023/03/14 10:20:47;;;;;;;220.60;151.18;;;;;;;24.25;38.16;101014.78;4996119;28;20030;-49
2023/03/14 10:23:15;;;;;;;236.38;157.23;;;;;;;24.26;37.99;101020.03;4979389;28;20042;-49
2023/03/14 10:25:46;;;;;;;225.93;155.95;;;;;;;24.28;37.88;101017.47;4996442;28;20041;-49
2023/03/14 10:28:26;;;;;;;232.70;154.70;;;;;;;24.34;38.09;101017.50;4996331;28;20038;-49
2023/03/14 10:30:56;;;;;;;215.52;147.60;;;;;;;24.29;37.96;101027.09;4996194;28;20393;-50
2023/03/14 10:33:27;;;;;;;223.98;150.00;;;;;;;24.26;37.71;101027.03;4996275;28;20054;-48
2023/03/14 10:35:58;;;;;;;224.57;148.77;;;;;;;24.26;38.01;101034.91;4996718;28;20439;-52
2023/03/14 10:38:29;;;;;;;226.48;150.95;;;;;;;24.35;37.72;101039.38;4996062;28;20452;-50
2023/03/14 10:40:59;;;;;;;216.10;152.02;;;;;;;24.29;37.67;101032.31;4994762;28;20388;-50
2023/03/14 10:43:38;;;;;;;223.80;154.25;;;;;;;24.31;37.94;101032.34;4996081;28;20031;-52
2023/03/14 10:46:12;;;;;;;244.10;163.07;;;;;;;24.33;38.24;101034.09;4995694;28;20038;-49
2023/03/14 10:48:41;;;;;;;225.80;149.07;;;;;;;24.32;37.71;101040.25;4994286;28;20412;-49
2023/03/14 10:51:13;;;;;;;223.45;154.73;;;;;;;24.22;38.14;101041.84;4996167;28;20046;-53
2023/03/14 10:53:45;;;;;;;225.68;149.88;;;;;;;24.26;37.70;101055.88;4994417;28;20472;-51
2023/03/14 10:56:15;;;;;;;231.50;156.77;;;;;;;24.23;38.16;101051.47;4995902;28;20045;-49
2023/03/14 10:58:46;;;;;;;230.90;158.27;;;;;;;24.21;38.40;101047.06;4995218;28;20030;-52
2023/03/14 11:01:43;;;;;;;237.73;159.30;;;;;;;24.25;38.42;101051.50;5036311;23;20407;-52
2023/03/14 11:04:49;;;;;;;228.45;157.48;;;;;;;24.30;38.15;101060.31;4930005;29;20040;-53
2023/03/14 11:07:35;;;;;;;234.40;159.10;;;;;;;24.30;38.24;101064.66;4921422;29;20036;-53
2023/03/14 11:10:33;;;;;;;249.45;163.88;;;;;;;24.40;37.99;101069.19;4923303;29;20071;-52
2023/03/14 11:13:18;;;;;;;237.45;162.80;;;;;;;24.34;37.77;101062.09;4927612;29;20124;-51